Time;durP1;ratioP1;P1;durP2;ratioP2;P2;SDS_P1;SDS_P2;PMS_P1;PMS_P2;Temp;Humidity;BMP_temperature;BMP_pressure;BME280_temperature;BME280_humidity;BME280_pressure;Samples;Min_cycle;Max_cycle;Signal;HPM_P1;HPM_P2
2023/09/05 00:00:16;;;;;;;5.35;4.47;;;19.40;98.80;;;;;;5071415;28;20044;-73
2023/09/05 00:02:44;;;;;;;9.18;3.72;;;19.40;98.80;;;;;;5054196;28;20500;-74
2023/09/05 00:05:11;;;;;;;4.20;3.15;;;19.40;98.80;;;;;;5051081;28;20028;-74
2023/09/05 00:07:39;;;;;;;5.63;4.18;;;19.40;98.80;;;;;;5050966;28;20013;-74
2023/09/05 00:10:12;;;;;;;9.32;4.20;;;19.40;98.80;;;;;;5051344;28;20040;-74
2023/09/05 00:12:43;;;;;;;5.40;3.45;;;19.40;98.80;;;;;;5050194;28;20021;-73
2023/09/05 00:15:13;;;;;;;5.93;3.67;;;19.30;98.80;;;;;;5049800;28;20563;-73
2023/09/05 00:17:39;;;;;;;5.35;3.60;;;19.30;98.80;;;;;;5050548;28;20108;-73
2023/09/05 00:20:06;;;;;;;3.60;2.75;;;19.30;98.70;;;;;;5050455;28;20108;-73
2023/09/05 00:22:31;;;;;;;5.03;3.42;;;19.30;98.70;;;;;;5050908;28;20028;-74
2023/09/05 00:24:57;;;;;;;4.93;3.72;;;19.30;99.00;;;;;;5051116;28;20071;-74
2023/09/05 00:27:23;;;;;;;4.68;2.90;;;19.30;98.70;;;;;;5051287;28;20025;-74
2023/09/05 00:29:48;;;;;;;3.75;3.45;;;19.30;98.70;;;;;;5050918;28;20033;-74
2023/09/05 00:32:14;;;;;;;4.60;3.58;;;19.30;98.70;;;;;;5051666;28;20078;-74
2023/09/05 00:34:40;;;;;;;8.13;4.38;;;19.30;98.70;;;;;;5050722;28;20025;-74
2023/09/05 00:37:07;;;;;;;4.00;3.10;;;19.30;98.80;;;;;;5050009;28;20545;-74
2023/09/05 00:39:34;;;;;;;3.95;3.53;;;19.20;98.70;;;;;;5051074;28;20017;-74
2023/09/05 00:42:05;;;;;;;3.55;3.17;;;19.20;98.70;;;;;;5050572;28;20025;-74
2023/09/05 00:44:32;;;;;;;3.70;3.40;;;19.20;98.70;;;;;;5051360;28;20126;-74
2023/09/05 00:47:00;;;;;;;3.33;2.97;;;19.20;98.80;;;;;;5049738;28;20415;-73
2023/09/05 00:49:27;;;;;;;3.92;3.63;;;19.20;98.80;;;;;;5051260;28;20071;-74
2023/09/05 00:52:00;;;;;;;3.83;3.42;;;19.10;98.80;;;;;;5062450;28;20017;-74
2023/09/05 00:54:26;;;;;;;3.75;2.80;;;19.10;99.10;;;;;;5050408;28;20500;-74
2023/09/05 00:56:53;;;;;;;3.13;2.83;;;19.10;98.90;;;;;;5049231;28;20108;-74
2023/09/05 00:59:19;;;;;;;3.67;3.08;;;19.10;98.90;;;;;;5051222;28;20061;-74
2023/09/05 01:01:45;;;;;;;4.43;2.90;;;19.00;98.90;;;;;;5051070;28;20025;-75
2023/09/05 01:04:11;;;;;;;3.22;2.80;;;19.00;98.90;;;;;;5050947;28;20074;-74
2023/09/05 01:07:07;;;;;;;4.60;3.30;;;19.00;98.90;;;;;;5050925;28;20025;-74
2023/09/05 01:09:44;;;;;;;3.83;3.10;;;19.00;98.90;;;;;;5050344;28;20438;-74
2023/09/05 01:12:09;;;;;;;2.97;2.50;;;18.90;98.90;;;;;;5050642;28;20017;-74
2023/09/05 01:14:35;;;;;;;4.65;3.75;;;18.90;99.00;;;;;;5050675;28;20029;-74
2023/09/05 01:17:01;;;;;;;6.53;3.20;;;18.90;99.00;;;;;;5049958;28;20017;-74
2023/09/05 01:19:30;;;;;;;5.18;3.00;;;18.90;99.10;;;;;;5050431;28;20440;-74
2023/09/05 01:22:07;;;;;;;5.45;3.72;;;18.80;99.20;;;;;;5051190;28;20050;-74
2023/09/05 01:24:35;;;;;;;2.78;2.25;;;18.80;99.30;;;;;;5050629;28;20029;-74
2023/09/05 01:27:03;;;;;;;4.20;2.80;;;18.70;99.30;;;;;;5051539;28;20021;-74
2023/09/05 01:29:34;;;;;;;4.63;3.15;;;18.70;99.50;;;;;;5050602;28;20051;-74
2023/09/05 01:32:01;;;;;;;3.10;2.80;;;18.60;99.50;;;;;;5051886;28;20029;-74
2023/09/05 01:34:27;;;;;;;4.10;2.92;;;18.60;99.70;;;;;;5050302;28;20029;-74
2023/09/05 01:36:52;;;;;;;3.10;2.80;;;18.60;99.80;;;;;;5051487;28;20024;-74
2023/09/05 01:39:19;;;;;;;3.45;2.63;;;18.50;99.90;;;;;;5049973;28;20033;-73
2023/09/05 01:41:44;;;;;;;3.05;2.75;;;18.50;99.90;;;;;;5051219;28;20074;-73
2023/09/05 01:44:10;;;;;;;7.40;3.13;;;18.40;99.90;;;;;;5059952;28;20432;-74
2023/09/05 01:46:36;;;;;;;4.57;3.55;;;18.40;99.90;;;;;;5058081;28;20027;-74
2023/09/05 01:49:02;;;;;;;5.30;3.28;;;18.40;99.90;;;;;;5058533;28;20054;-74
2023/09/05 01:51:27;;;;;;;4.03;3.63;;;18.40;99.90;;;;;;5069075;28;20025;-73
2023/09/05 01:53:53;;;;;;;4.97;3.85;;;18.40;99.90;;;;;;5068859;28;20028;-73
2023/09/05 01:56:19;;;;;;;4.35;3.60;;;18.40;99.90;;;;;;5055072;28;20124;-74
2023/09/05 01:58:44;;;;;;;5.03;3.80;;;18.40;99.90;;;;;;5060076;28;20036;-73
2023/09/05 02:01:10;;;;;;;4.57;3.60;;;18.40;99.80;;;;;;5053031;28;20024;-74
2023/09/05 02:03:35;;;;;;;5.43;3.53;;;18.40;99.70;;;;;;5045718;28;20021;-73
2023/09/05 02:06:01;;;;;;;5.32;4.15;;;18.50;99.70;;;;;;5081615;28;20492;-74
2023/09/05 02:08:27;;;;;;;3.22;2.95;;;18.40;99.70;;;;;;5058050;28;20041;-73
2023/09/05 02:10:52;;;;;;;4.43;3.08;;;18.50;99.70;;;;;;5066498;28;20028;-74
2023/09/05 02:13:18;;;;;;;3.63;3.10;;;18.50;99.70;;;;;;5068596;28;20031;-74
2023/09/05 02:15:44;;;;;;;4.32;3.92;;;18.50;99.70;;;;;;5067658;28;20162;-74
2023/09/05 02:18:10;;;;;;;3.30;2.97;;;18.50;99.60;;;;;;5068027;28;20020;-73
2023/09/05 02:20:40;;;;;;;4.90;4.00;;;18.50;99.60;;;;;;5063658;28;20017;-74
2023/09/05 02:23:06;;;;;;;3.60;3.30;;;18.40;99.60;;;;;;5068551;28;20428;-74
2023/09/05 02:25:32;;;;;;;4.03;3.45;;;18.40;99.70;;;;;;5048878;28;20029;-74
2023/09/05 02:27:58;;;;;;;4.60;3.83;;;18.40;99.70;;;;;;5052336;28;20036;-74
2023/09/05 02:30:24;;;;;;;3.75;3.38;;;18.40;99.70;;;;;;5067070;28;20469;-73
2023/09/05 02:32:53;;;;;;;4.75;4.10;;;18.40;99.80;;;;;;5064610;28;20485;-74
2023/09/05 02:35:21;;;;;;;3.83;3.10;;;18.40;99.90;;;;;;5068070;28;20032;-73
2023/09/05 02:37:51;;;;;;;5.40;3.90;;;18.40;99.80;;;;;;5067325;28;20027;-73
2023/09/05 02:40:18;;;;;;;4.65;3.92;;;18.30;99.90;;;;;;5040386;28;20033;-73
2023/09/05 02:42:43;;;;;;;5.28;3.63;;;18.30;99.90;;;;;;5055670;28;20111;-73
2023/09/05 02:45:10;;;;;;;4.22;3.92;;;18.30;99.90;;;;;;5048275;28;20108;-73
2023/09/05 02:47:35;;;;;;;4.18;3.78;;;18.30;99.90;;;;;;5061947;28;20074;-74
2023/09/05 02:50:01;;;;;;;4.45;3.80;;;18.30;99.90;;;;;;5054723;28;20036;-73
2023/09/05 02:52:27;;;;;;;4.20;3.10;;;18.20;99.90;;;;;;5054704;28;20029;-73
2023/09/05 02:54:52;;;;;;;4.75;4.03;;;18.20;99.90;;;;;;5055870;28;20129;-73
2023/09/05 02:57:18;;;;;;;3.92;3.60;;;18.20;99.90;;;;;;5067980;28;20067;-73
2023/09/05 02:59:44;;;;;;;6.38;4.00;;;18.20;99.90;;;;;;5068052;28;20094;-73
2023/09/05 03:02:09;;;;;;;4.97;3.53;;;18.20;99.90;;;;;;5062978;28;20050;-74
2023/09/05 03:04:35;;;;;;;4.97;4.07;;;18.20;99.90;;;;;;5068356;28;20104;-74
2023/09/05 03:07:01;;;;;;;4.95;3.80;;;18.10;99.90;;;;;;5068780;28;20469;-74
2023/09/05 03:09:28;;;;;;;4.55;4.03;;;18.20;99.90;;;;;;5072315;28;20534;-73
2023/09/05 03:11:54;;;;;;;4.70;3.92;;;18.10;99.90;;;;;;5057965;28;20383;-73
2023/09/05 03:14:19;;;;;;;4.82;4.38;;;18.10;99.90;;;;;;5051783;28;20022;-74
2023/09/05 03:16:45;;;;;;;4.75;4.07;;;18.10;99.90;;;;;;5052366;28;20021;-74
2023/09/05 03:19:11;;;;;;;6.68;4.88;;;18.10;99.90;;;;;;5052018;28;20021;-74
2023/09/05 03:21:40;;;;;;;6.00;5.50;;;18.10;99.90;;;;;;5052187;28;20066;-74
2023/09/05 03:24:06;;;;;;;6.85;4.30;;;18.10;99.90;;;;;;5051966;28;20071;-74
2023/09/05 03:26:31;;;;;;;4.90;4.05;;;18.00;99.90;;;;;;5052343;28;20502;-73
2023/09/05 03:28:59;;;;;;;5.90;4.65;;;18.10;99.90;;;;;;5051682;28;20486;-73
2023/09/05 03:31:27;;;;;;;5.22;4.32;;;18.00;99.90;;;;;;5053119;28;20479;-74
2023/09/05 03:33:56;;;;;;;6.15;4.80;;;18.00;99.90;;;;;;5052786;28;20485;-73
2023/09/05 03:36:25;;;;;;;5.28;4.68;;;18.00;99.90;;;;;;5068187;28;20029;-73
2023/09/05 03:38:51;;;;;;;7.78;5.30;;;18.00;99.90;;;;;;5052685;28;20017;-73
2023/09/05 03:41:17;;;;;;;6.65;4.90;;;18.00;99.90;;;;;;5051989;28;20673;-73
2023/09/05 03:43:42;;;;;;;4.80;4.05;;;18.00;99.90;;;;;;5051555;28;20021;-73
2023/09/05 03:46:08;;;;;;;5.63;4.45;;;18.00;99.90;;;;;;5051497;28;20032;-73
2023/09/05 03:48:33;;;;;;;5.85;4.57;;;18.00;99.90;;;;;;5050618;28;20017;-73
2023/09/05 03:50:59;;;;;;;7.55;4.45;;;18.00;99.90;;;;;;5052100;28;20496;-73
2023/09/05 03:53:24;;;;;;;5.53;5.03;;;18.00;99.90;;;;;;5071017;28;20028;-73
2023/09/05 03:55:51;;;;;;;5.63;5.13;;;18.00;99.90;;;;;;5069905;28;20392;-72
2023/09/05 03:58:17;;;;;;;5.50;4.43;;;18.00;99.90;;;;;;5070444;28;20095;-73
2023/09/05 04:00:42;;;;;;;7.93;4.50;;;18.00;99.90;;;;;;5066808;28;20100;-73
2023/09/05 04:03:12;;;;;;;5.93;4.82;;;18.00;99.90;;;;;;5070456;28;20013;-73
2023/09/05 04:05:38;;;;;;;6.13;4.85;;;18.00;99.90;;;;;;5070109;28;20040;-73
2023/09/05 04:08:06;;;;;;;5.32;4.82;;;18.00;99.90;;;;;;5070688;28;20064;-73
2023/09/05 04:10:32;;;;;;;5.40;4.90;;;18.00;99.90;;;;;;5069944;28;20035;-73
2023/09/05 04:12:58;;;;;;;5.28;4.45;;;18.00;99.90;;;;;;5070613;28;20028;-73
2023/09/05 04:15:23;;;;;;;5.80;5.07;;;18.00;99.90;;;;;;5069193;28;20017;-73
2023/09/05 04:17:50;;;;;;;6.25;4.60;;;18.00;99.90;;;;;;5070240;28;20237;-73
2023/09/05 04:20:17;;;;;;;8.35;4.97;;;18.00;99.90;;;;;;5069412;28;20031;-73
2023/09/05 04:22:42;;;;;;;5.10;4.53;;;18.00;99.90;;;;;;5070613;28;20718;-73
2023/09/05 04:25:08;;;;;;;5.68;5.13;;;18.00;99.90;;;;;;5069308;28;20016;-73
2023/09/05 04:27:34;;;;;;;5.20;4.68;;;18.00;99.90;;;;;;5057952;28;20060;-73
2023/09/05 04:30:00;;;;;;;5.60;5.10;;;18.00;99.90;;;;;;5064892;28;20025;-73
2023/09/05 04:32:31;;;;;;;4.80;4.30;;;18.00;99.90;;;;;;5070350;28;20423;-73
2023/09/05 04:35:01;;;;;;;8.20;5.00;;;17.90;99.90;;;;;;5063530;28;20752;-73
2023/09/05 04:37:27;;;;;;;5.70;4.85;;;17.90;99.90;;;;;;5057808;28;20029;-73
2023/09/05 04:39:54;;;;;;;4.40;4.00;;;17.90;99.90;;;;;;5062935;28;20075;-73
2023/09/05 04:42:20;;;;;;;5.70;5.20;;;17.90;99.90;;;;;;5064062;28;20021;-73
2023/09/05 04:44:46;;;;;;;7.20;4.93;;;17.90;99.90;;;;;;5063066;28;20031;-73
2023/09/05 04:47:22;;;;;;;6.05;5.43;;;17.90;99.90;;;;;;5066817;28;20035;-74
2023/09/05 04:49:52;;;;;;;8.38;5.57;;;17.90;99.90;;;;;;5060651;28;20028;-73
2023/09/05 04:52:19;;;;;;;6.03;4.53;;;17.80;99.90;;;;;;5050297;28;20027;-74
2023/09/05 04:54:45;;;;;;;8.85;4.63;;;17.90;99.90;;;;;;5050446;28;20033;-73
2023/09/05 04:57:16;;;;;;;7.65;4.78;;;17.90;99.90;;;;;;5049925;28;20044;-73
2023/09/05 04:59:47;;;;;;;4.78;4.30;;;17.90;99.90;;;;;;5049715;28;20025;-74
2023/09/05 05:02:13;;;;;;;6.05;5.20;;;17.90;99.90;;;;;;5050585;28;20020;-73
2023/09/05 05:04:40;;;;;;;6.07;5.28;;;17.80;99.90;;;;;;5050074;28;20040;-73
2023/09/05 05:07:06;;;;;;;5.65;5.15;;;17.80;99.90;;;;;;5050005;28;20507;-74
2023/09/05 05:09:32;;;;;;;7.00;4.10;;;17.80;99.90;;;;;;5051267;28;20051;-73
2023/09/05 05:11:59;;;;;;;5.47;4.40;;;17.90;99.90;;;;;;5069245;28;20056;-73
2023/09/05 05:14:24;;;;;;;6.15;4.53;;;17.90;99.90;;;;;;5042374;28;20020;-73
2023/09/05 05:16:50;;;;;;;8.20;4.53;;;17.90;99.90;;;;;;5069270;28;20056;-73
2023/09/05 05:19:15;;;;;;;7.03;5.28;;;17.90;99.90;;;;;;5069251;28;20042;-73
2023/09/05 05:21:41;;;;;;;6.00;4.90;;;17.90;99.90;;;;;;5069028;28;20048;-73
2023/09/05 05:24:08;;;;;;;5.72;4.25;;;17.90;99.90;;;;;;5052125;28;20109;-73
2023/09/05 05:26:33;;;;;;;6.63;4.47;;;17.90;99.90;;;;;;5058301;28;20033;-73
2023/09/05 05:28:59;;;;;;;4.80;3.92;;;18.00;99.90;;;;;;5068934;28;20374;-73
2023/09/05 05:31:26;;;;;;;7.22;3.97;;;18.00;99.90;;;;;;5068021;28;20025;-73
2023/09/05 05:33:52;;;;;;;5.50;4.97;;;18.00;99.90;;;;;;5069177;28;20021;-73
2023/09/05 05:36:17;;;;;;;7.55;4.10;;;18.00;99.80;;;;;;5068156;28;20530;-73
2023/09/05 05:38:43;;;;;;;4.10;3.65;;;18.10;99.70;;;;;;5068883;28;20017;-73
2023/09/05 05:41:11;;;;;;;4.53;4.13;;;18.10;99.70;;;;;;5055226;28;20032;-73
2023/09/05 05:43:37;;;;;;;6.85;3.97;;;18.10;99.70;;;;;;5069233;28;20027;-73
2023/09/05 05:46:03;;;;;;;7.63;4.80;;;18.10;99.60;;;;;;5067925;28;20024;-73
2023/09/05 05:48:28;;;;;;;4.75;3.90;;;18.10;99.60;;;;;;5067848;28;20029;-74
2023/09/05 05:50:55;;;;;;;5.68;5.05;;;18.20;99.70;;;;;;5055918;28;20028;-73
2023/09/05 05:53:22;;;;;;;4.40;4.00;;;18.20;99.60;;;;;;5050870;28;20379;-73
2023/09/05 05:55:47;;;;;;;5.35;4.63;;;18.20;99.60;;;;;;5047906;28;20076;-73
2023/09/05 05:58:14;;;;;;;6.90;4.28;;;18.20;99.70;;;;;;5068654;28;20105;-73
2023/09/05 06:00:45;;;;;;;5.18;4.78;;;18.30;99.70;;;;;;5068991;28;20025;-73
2023/09/05 06:03:12;;;;;;;5.55;4.97;;;18.30;99.60;;;;;;5049527;28;20017;-73
2023/09/05 06:05:38;;;;;;;5.93;4.45;;;18.30;99.60;;;;;;5068464;28;20512;-73
2023/09/05 06:08:04;;;;;;;7.25;4.63;;;18.30;99.50;;;;;;5054923;28;20021;-73
2023/09/05 06:10:30;;;;;;;5.97;4.60;;;18.30;99.60;;;;;;5069041;28;20083;-74
2023/09/05 06:12:56;;;;;;;5.85;4.68;;;18.40;99.50;;;;;;5065851;28;20060;-73
2023/09/05 06:15:21;;;;;;;5.88;4.57;;;18.40;99.50;;;;;;5061752;28;20114;-73
2023/09/05 06:17:47;;;;;;;5.47;4.38;;;18.50;99.50;;;;;;5068243;28;20016;-73
2023/09/05 06:20:13;;;;;;;4.20;3.70;;;18.50;99.50;;;;;;5068889;28;20028;-73
2023/09/05 06:22:39;;;;;;;7.57;3.85;;;18.50;99.40;;;;;;5067981;28;20031;-73
2023/09/05 06:25:05;;;;;;;6.00;4.32;;;18.50;99.40;;;;;;5068474;28;20028;-75
2023/09/05 06:27:32;;;;;;;6.75;4.53;;;18.60;99.40;;;;;;5068085;28;20482;-73
2023/09/05 06:29:57;;;;;;;4.78;4.22;;;18.60;99.30;;;;;;5068931;28;20036;-73
2023/09/05 06:32:23;;;;;;;4.93;4.07;;;18.60;99.30;;;;;;5061513;28;20433;-73
2023/09/05 06:34:50;;;;;;;4.85;4.35;;;18.70;99.20;;;;;;5061687;28;20751;-73
2023/09/05 06:37:16;;;;;;;5.28;3.67;;;18.70;99.10;;;;;;5067665;28;20471;-73
2023/09/05 06:39:42;;;;;;;5.85;4.15;;;18.80;99.20;;;;;;5069080;28;20031;-73
2023/09/05 06:42:08;;;;;;;6.80;4.65;;;18.80;99.10;;;;;;5060144;28;20032;-73
2023/09/05 06:44:33;;;;;;;6.20;4.25;;;18.90;99.00;;;;;;5057438;28;20025;-73
2023/09/05 06:46:59;;;;;;;4.75;3.88;;;18.90;98.90;;;;;;5061623;28;20589;-73
2023/09/05 06:49:25;;;;;;;7.00;4.13;;;19.00;98.80;;;;;;5052713;28;20040;-73
2023/09/05 06:51:51;;;;;;;4.60;3.65;;;19.10;98.70;;;;;;5052412;28;20033;-73
2023/09/05 06:54:16;;;;;;;3.90;3.45;;;19.10;98.60;;;;;;5052345;28;20029;-73
2023/09/05 06:56:42;;;;;;;3.88;3.13;;;19.20;98.60;;;;;;5059681;28;20072;-74
2023/09/05 06:59:16;;;;;;;4.45;3.40;;;19.20;98.50;;;;;;5071837;28;20489;-73
2023/09/05 07:01:46;;;;;;;5.55;2.97;;;19.30;98.50;;;;;;5072074;28;20107;-73
2023/09/05 07:04:13;;;;;;;3.80;3.00;;;19.40;98.30;;;;;;5066227;28;20099;-73
2023/09/05 07:06:39;;;;;;;4.30;2.92;;;19.50;98.20;;;;;;5053890;28;20021;-73
2023/09/05 07:09:08;;;;;;;4.40;3.25;;;19.50;98.00;;;;;;5061496;28;20025;-73
2023/09/05 07:11:34;;;;;;;5.07;3.50;;;19.60;98.00;;;;;;5058987;28;20025;-74
2023/09/05 07:14:00;;;;;;;4.03;3.65;;;19.60;97.90;;;;;;5060228;28;20020;-73
2023/09/05 07:16:26;;;;;;;5.05;3.53;;;19.70;97.80;;;;;;5069891;28;20396;-73
2023/09/05 07:18:51;;;;;;;6.50;4.00;;;19.70;97.90;;;;;;5078100;28;20049;-74
2023/09/05 07:21:17;;;;;;;6.63;3.88;;;19.80;98.00;;;;;;5056406;28;20031;-73
2023/09/05 07:23:43;;;;;;;5.95;3.75;;;19.90;97.80;;;;;;5058452;28;20474;-74
2023/09/05 07:26:08;;;;;;;6.35;3.25;;;19.90;97.80;;;;;;5055480;28;20021;-74
2023/09/05 07:28:34;;;;;;;5.30;3.33;;;20.00;97.80;;;;;;5058823;28;20028;-74
2023/09/05 07:31:00;;;;;;;6.10;4.25;;;20.10;97.80;;;;;;5064268;28;20064;-73
2023/09/05 07:33:26;;;;;;;4.55;3.53;;;20.10;97.70;;;;;;5071166;28;20013;-74
2023/09/05 07:35:52;;;;;;;5.00;3.00;;;20.20;97.70;;;;;;5069237;28;20112;-73
2023/09/05 07:38:21;;;;;;;4.75;3.83;;;20.20;97.80;;;;;;5065747;28;20501;-74
2023/09/05 07:40:48;;;;;;;5.63;4.10;;;20.30;97.80;;;;;;5062077;28;20029;-74
2023/09/05 07:43:13;;;;;;;5.90;3.90;;;20.40;97.70;;;;;;5060015;28;20470;-74
2023/09/05 07:45:39;;;;;;;5.13;3.90;;;20.50;97.60;;;;;;5065963;28;20089;-74
2023/09/05 07:48:07;;;;;;;3.72;3.33;;;20.50;97.50;;;;;;5061386;28;20062;-74
2023/09/05 07:50:34;;;;;;;4.60;2.97;;;20.60;97.40;;;;;;5069574;28;20028;-73
2023/09/05 07:53:00;;;;;;;3.67;3.35;;;20.70;97.30;;;;;;5070004;28;20465;-74
2023/09/05 07:55:26;;;;;;;4.22;2.92;;;20.70;97.20;;;;;;5061820;28;20040;-74
2023/09/05 07:57:52;;;;;;;4.13;3.05;;;20.90;97.30;;;;;;5054066;28;20490;-76
2023/09/05 08:00:19;;;;;;;4.15;2.58;;;20.90;97.10;;;;;;5052940;28;20456;-76
2023/09/05 08:02:45;;;;;;;5.97;2.83;;;21.00;97.00;;;;;;5072585;28;20071;-76
2023/09/05 08:05:11;;;;;;;4.18;2.70;;;21.20;96.80;;;;;;5067991;28;20471;-76
2023/09/05 08:07:38;;;;;;;6.97;2.83;;;21.20;96.70;;;;;;5059869;28;20040;-76
2023/09/05 08:10:05;;;;;;;3.55;2.25;;;21.30;96.40;;;;;;5061871;28;20048;-76
2023/09/05 08:12:31;;;;;;;5.90;2.38;;;21.40;96.10;;;;;;5049533;28;20108;-76
2023/09/05 08:14:56;;;;;;;6.13;2.83;;;21.50;95.90;;;;;;5054005;28;20109;-76
2023/09/05 08:17:22;;;;;;;5.93;2.42;;;21.60;95.60;;;;;;5061515;28;20800;-77
2023/09/05 08:19:47;;;;;;;3.75;2.70;;;21.60;95.70;;;;;;5068540;28;20032;-77
2023/09/05 08:22:13;;;;;;;3.67;3.00;;;21.70;95.70;;;;;;5061410;28;20082;-77
2023/09/05 08:24:39;;;;;;;6.88;2.70;;;21.80;95.50;;;;;;5062276;28;20024;-76
2023/09/05 08:27:05;;;;;;;5.60;2.58;;;21.80;95.30;;;;;;5063499;28;20020;-76
2023/09/05 08:29:32;;;;;;;5.43;2.70;;;21.90;95.40;;;;;;5067708;28;20103;-76
2023/09/05 08:31:59;;;;;;;4.90;2.75;;;21.90;95.30;;;;;;5067592;28;20025;-76
2023/09/05 08:34:24;;;;;;;2.83;2.00;;;22.00;95.20;;;;;;5059415;28;20037;-76
2023/09/05 08:36:50;;;;;;;3.42;2.60;;;22.10;95.20;;;;;;5054796;28;20466;-76
2023/09/05 08:39:16;;;;;;;4.40;2.67;;;22.20;95.20;;;;;;5053026;28;20047;-76
2023/09/05 08:41:42;;;;;;;6.85;2.58;;;22.20;95.20;;;;;;5053347;28;20067;-77
2023/09/05 08:44:08;;;;;;;7.20;3.55;;;22.30;95.20;;;;;;5067980;28;20021;-75
2023/09/05 08:46:36;;;;;;;3.50;2.65;;;22.30;95.10;;;;;;5065705;28;20021;-76
2023/09/05 08:49:02;;;;;;;3.13;2.42;;;22.40;95.10;;;;;;5066616;28;20016;-75
2023/09/05 08:51:38;;;;;;;6.20;2.67;;;22.40;95.10;;;;;;5063668;28;20025;-75
2023/09/05 08:54:06;;;;;;;2.67;2.42;;;22.50;95.30;;;;;;5065471;28;20016;-75
2023/09/05 08:56:32;;;;;;;3.78;2.58;;;22.60;95.20;;;;;;5061977;28;20100;-74
2023/09/05 08:59:00;;;;;;;7.45;3.95;;;22.60;95.00;;;;;;5053514;28;20050;-74
2023/09/05 09:01:26;;;;;;;2.60;2.17;;;22.60;94.90;;;;;;5066041;28;20163;-74
2023/09/05 09:03:54;;;;;;;7.40;2.75;;;22.70;94.80;;;;;;5044085;28;20029;-75
2023/09/05 09:06:26;;;;;;;3.92;2.75;;;22.70;95.10;;;;;;5049979;28;20079;-75
2023/09/05 09:08:52;;;;;;;3.13;2.30;;;22.80;94.80;;;;;;5063268;28;20040;-74
2023/09/05 09:11:22;;;;;;;4.70;2.33;;;22.90;94.70;;;;;;5055286;28;20413;-74
2023/09/05 09:13:52;;;;;;;3.17;2.20;;;23.00;94.60;;;;;;5054994;28;20021;-74
2023/09/05 09:16:18;;;;;;;9.32;2.70;;;23.00;94.80;;;;;;5053722;28;20488;-74
2023/09/05 09:19:01;;;;;;;4.82;2.78;;;23.10;94.90;;;;;;5057406;28;20018;-74
2023/09/05 09:21:29;;;;;;;4.43;2.92;;;23.20;94.50;;;;;;5055873;28;20043;-74
2023/09/05 09:24:11;;;;;;;3.83;2.67;;;23.30;94.50;;;;;;5054665;28;20033;-74
2023/09/05 09:26:40;;;;;;;4.13;2.20;;;23.40;94.20;;;;;;5054353;28;20017;-74
2023/09/05 09:29:10;;;;;;;5.90;2.58;;;23.40;93.90;;;;;;5054419;28;20611;-74
2023/09/05 09:31:40;;;;;;;4.53;2.10;;;23.50;93.70;;;;;;5064662;28;20041;-74
2023/09/05 09:34:07;;;;;;;5.05;2.30;;;23.60;93.70;;;;;;5055166;28;20042;-74
2023/09/05 09:36:34;;;;;;;2.88;2.30;;;23.70;93.60;;;;;;5058695;28;20043;-74
2023/09/05 09:39:10;;;;;;;2.88;2.25;;;23.80;93.40;;;;;;5055851;28;20025;-74
2023/09/05 09:41:41;;;;;;;3.78;2.50;;;23.90;93.00;;;;;;5052159;28;20095;-75
2023/09/05 09:44:06;;;;;;;2.65;1.80;;;24.00;93.00;;;;;;5057856;28;20131;-75
2023/09/05 09:46:32;;;;;;;2.08;1.52;;;24.10;92.90;;;;;;5055382;28;20147;-74
2023/09/05 09:49:00;;;;;;;3.15;2.00;;;24.20;92.90;;;;;;5055853;28;20032;-74
2023/09/05 09:51:28;;;;;;;2.55;1.95;;;24.20;93.20;;;;;;5054157;28;20025;-73
2023/09/05 09:53:56;;;;;;;3.22;2.05;;;24.30;93.10;;;;;;5049072;28;20080;-74
2023/09/05 09:56:26;;;;;;;2.80;2.03;;;24.40;92.80;;;;;;5052175;28;20143;-74
2023/09/05 09:58:55;;;;;;;3.80;1.90;;;24.50;92.60;;;;;;5057283;28;20025;-74
2023/09/05 10:01:23;;;;;;;2.60;1.75;;;24.60;92.30;;;;;;5045902;28;20868;-74
2023/09/05 10:03:52;;;;;;;3.08;1.63;;;24.60;91.90;;;;;;5045904;28;20029;-74
2023/09/05 10:06:19;;;;;;;4.68;2.28;;;24.60;91.80;;;;;;5051579;28;20016;-75
2023/09/05 10:08:46;;;;;;;3.15;1.80;;;24.70;91.40;;;;;;5063630;28;20142;-74
2023/09/05 10:11:14;;;;;;;5.20;2.33;;;24.80;91.20;;;;;;5061311;28;20025;-74
2023/09/05 10:13:41;;;;;;;2.63;1.70;;;24.90;91.30;;;;;;5066126;28;20029;-74
2023/09/05 10:16:08;;;;;;;3.72;1.83;;;24.90;91.40;;;;;;5061719;28;20024;-74
2023/09/05 10:18:38;;;;;;;1.60;1.15;;;25.00;91.30;;;;;;5071239;28;20024;-74
2023/09/05 10:21:04;;;;;;;3.60;1.67;;;25.10;91.60;;;;;;5059677;28;20028;-75
2023/09/05 10:23:32;;;;;;;2.80;1.52;;;25.20;91.60;;;;;;5058664;28;20021;-75
2023/09/05 10:26:00;;;;;;;2.50;1.60;;;25.20;91.00;;;;;;5072689;28;20469;-75
2023/09/05 10:28:27;;;;;;;1.90;1.45;;;25.30;90.90;;;;;;5058949;28;20025;-74
2023/09/05 10:30:54;;;;;;;2.55;1.67;;;25.40;90.90;;;;;;5072760;28;20024;-75
2023/09/05 10:33:32;;;;;;;4.45;1.60;;;25.40;90.80;;;;;;5064891;28;20013;-74
2023/09/05 10:35:58;;;;;;;2.03;1.50;;;25.40;90.80;;;;;;5054233;28;20017;-75
2023/09/05 10:38:23;;;;;;;2.47;1.48;;;25.50;90.50;;;;;;5065696;28;20351;-75
2023/09/05 10:40:50;;;;;;;2.67;1.50;;;25.50;90.50;;;;;;5070247;28;20141;-75
2023/09/05 10:43:22;;;;;;;1.58;1.27;;;25.50;90.40;;;;;;5069384;28;20081;-74
2023/09/05 10:45:55;;;;;;;1.98;1.65;;;25.60;90.40;;;;;;5071510;28;20032;-74
2023/09/05 10:48:36;;;;;;;2.95;1.48;;;25.70;90.00;;;;;;5061880;28;20025;-74
2023/09/05 10:51:13;;;;;;;3.22;1.42;;;25.70;89.60;;;;;;5059148;28;20025;-75
2023/09/05 10:53:43;;;;;;;2.55;1.45;;;25.70;90.00;;;;;;5066054;28;20025;-75
2023/09/05 10:56:40;;;;;;;1.75;1.45;;;25.70;90.30;;;;;;5058906;28;20139;-74
2023/09/05 10:59:29;;;;;;;3.92;1.92;;;25.80;90.20;;;;;;5057104;28;20025;-74
2023/09/05 11:02:00;;;;;;;1.88;1.33;;;25.80;89.80;;;;;;5066387;28;20026;-74
2023/09/05 11:04:28;;;;;;;1.58;1.33;;;25.90;90.00;;;;;;5052044;28;20391;-74
2023/09/05 11:07:02;;;;;;;4.68;2.15;;;25.90;89.80;;;;;;5055691;28;20108;-74
2023/09/05 11:09:48;;;;;;;2.35;1.50;;;25.90;89.90;;;;;;5062705;28;20457;-74
2023/09/05 11:12:14;;;;;;;2.28;1.42;;;25.90;89.90;;;;;;5062163;28;20020;-74
2023/09/05 11:14:39;;;;;;;2.85;1.83;;;25.90;90.00;;;;;;5060759;28;20555;-74
2023/09/05 11:17:05;;;;;;;1.77;1.52;;;25.90;89.50;;;;;;5066910;28;20035;-74
2023/09/05 11:19:40;;;;;;;2.35;1.60;;;25.90;89.40;;;;;;5055229;28;20146;-74
2023/09/05 11:22:18;;;;;;;2.40;1.65;;;25.90;90.10;;;;;;5054157;28;20035;-74
2023/09/05 11:24:50;;;;;;;1.50;1.20;;;25.90;88.90;;;;;;5052624;28;20108;-73
2023/09/05 11:27:25;;;;;;;2.22;1.45;;;26.00;89.80;;;;;;5046206;28;20025;-74
2023/09/05 11:29:55;;;;;;;3.30;1.60;;;26.00;88.90;;;;;;5060598;28;20032;-74
2023/09/05 11:32:29;;;;;;;4.55;1.55;;;26.00;89.10;;;;;;5055855;28;20021;-74
2023/09/05 11:34:55;;;;;;;2.17;1.30;;;26.00;89.10;;;;;;5057697;28;20079;-74
2023/09/05 11:37:21;;;;;;;2.67;1.40;;;26.00;89.50;;;;;;5056454;28;20462;-74
2023/09/05 11:39:51;;;;;;;1.65;1.30;;;26.00;89.50;;;;;;5058497;28;20017;-74
2023/09/05 11:42:30;;;;;;;2.40;1.33;;;26.00;89.60;;;;;;5056456;28;20117;-74
2023/09/05 11:44:57;;;;;;;1.77;1.38;;;26.10;89.30;;;;;;5054937;28;20033;-74
2023/09/05 11:47:24;;;;;;;1.42;1.10;;;26.10;89.00;;;;;;5058336;28;20024;-74
2023/09/05 11:49:52;;;;;;;3.80;1.20;;;26.20;88.40;;;;;;5055117;28;20064;-74
2023/09/05 11:52:19;;;;;;;3.05;1.48;;;26.30;88.30;;;;;;5062397;28;20067;-74
2023/09/05 11:54:48;;;;;;;1.85;1.40;;;26.30;88.30;;;;;;5064701;28;20079;-74
2023/09/05 11:57:16;;;;;;;1.88;1.27;;;26.40;88.40;;;;;;5050281;28;20047;-73
2023/09/05 11:59:43;;;;;;;2.22;1.40;;;26.40;88.00;;;;;;5056597;28;20032;-74
2023/09/05 12:02:09;;;;;;;1.58;1.08;;;26.40;87.50;;;;;;5067425;28;20478;-75
2023/09/05 12:04:36;;;;;;;2.03;1.27;;;26.50;87.20;;;;;;5052757;28;20041;-74
2023/09/05 12:07:05;;;;;;;3.17;1.35;;;26.40;87.10;;;;;;5056798;28;20021;-75
2023/09/05 12:09:31;;;;;;;1.63;1.17;;;26.50;87.40;;;;;;5064997;28;20040;-74
2023/09/05 12:12:11;;;;;;;2.25;1.60;;;26.50;87.60;;;;;;5063454;28;20017;-74
2023/09/05 12:14:51;;;;;;;3.63;1.38;;;26.50;87.20;;;;;;5049832;28;20477;-74
2023/09/05 12:17:18;;;;;;;3.17;1.38;;;26.60;87.90;;;;;;5067839;28;20043;-75
2023/09/05 12:19:45;;;;;;;2.90;1.52;;;26.60;87.60;;;;;;5060190;28;20108;-74
2023/09/05 12:22:29;;;;;;;2.65;1.33;;;26.60;86.50;;;;;;5061270;28;20534;-74
2023/09/05 12:25:10;;;;;;;;;;;26.60;85.90;;;;;;5059080;28;20044;-75
2023/09/05 12:27:38;;;;;;;1.73;1.20;;;26.60;86.10;;;;;;5058125;28;20273;-75
2023/09/05 12:30:07;;;;;;;1.60;1.23;;;26.60;86.30;;;;;;5063733;28;20021;-74
2023/09/05 12:32:34;;;;;;;2.22;1.08;;;26.70;86.00;;;;;;5067319;28;20021;-74
2023/09/05 12:34:59;;;;;;;1.90;1.20;;;26.70;86.40;;;;;;5065728;28;20021;-75
2023/09/05 12:37:25;;;;;;;4.47;1.35;;;26.70;86.50;;;;;;5069668;28;20032;-75
2023/09/05 12:39:51;;;;;;;2.92;1.40;;;26.80;85.60;;;;;;5067315;28;20036;-74
2023/09/05 12:42:17;;;;;;;2.15;1.13;;;26.80;84.80;;;;;;5062147;28;20017;-74
2023/09/05 12:44:42;;;;;;;2.38;1.30;;;26.80;84.40;;;;;;5052346;28;20037;-74
2023/09/05 12:47:08;;;;;;;2.13;1.30;;;26.90;84.60;;;;;;5068980;28;20031;-74
2023/09/05 12:49:36;;;;;;;1.63;1.27;;;26.90;85.30;;;;;;5067392;28;20538;-75